sensor_id;sensor_type;location;lat;lon;timestamp;pressure;altitude;pressure_sealevel;temperature;humidity
45813;BME280;31519;45.408;10.962;2023-05-08T00:01:51;100824.81;;;21.56;88.13
45813;BME280;31519;45.408;10.962;2023-05-08T00:04:19;100823.34;;;21.32;88.31
45813;BME280;31519;45.408;10.962;2023-05-08T00:06:48;100816.16;;;21.77;87.23
45813;BME280;31519;45.408;10.962;2023-05-08T00:09:20;100825.91;;;21.85;86.03
45813;BME280;31519;45.408;10.962;2023-05-08T00:11:48;100821.06;;;22.01;85.02
45813;BME280;31519;45.408;10.962;2023-05-08T00:14:16;100815.25;;;22.02;84.10
45813;BME280;31519;45.408;10.962;2023-05-08T00:16:44;100823.56;;;21.83;85.95
45813;BME280;31519;45.408;10.962;2023-05-08T00:19:12;100819.25;;;21.79;86.92
45813;BME280;31519;45.408;10.962;2023-05-08T00:21:40;100822.63;;;22.02;85.25
45813;BME280;31519;45.408;10.962;2023-05-08T00:24:09;100819.09;;;21.64;87.10
45813;BME280;31519;45.408;10.962;2023-05-08T00:26:37;100823.88;;;21.78;86.65
45813;BME280;31519;45.408;10.962;2023-05-08T00:29:05;100806.75;;;21.67;87.69
45813;BME280;31519;45.408;10.962;2023-05-08T00:31:33;100795.13;;;21.66;89.05
45813;BME280;31519;45.408;10.962;2023-05-08T00:34:02;100795.81;;;21.60;88.95
45813;BME280;31519;45.408;10.962;2023-05-08T00:36:30;100797.06;;;21.70;87.90
45813;BME280;31519;45.408;10.962;2023-05-08T00:38:59;100793.81;;;21.53;88.19
45813;BME280;31519;45.408;10.962;2023-05-08T00:41:27;100790.56;;;21.78;87.62
45813;BME280;31519;45.408;10.962;2023-05-08T00:43:55;100796.81;;;21.82;87.51
45813;BME280;31519;45.408;10.962;2023-05-08T00:46:23;100796.63;;;21.64;88.25
45813;BME280;31519;45.408;10.962;2023-05-08T00:48:52;100795.44;;;21.61;88.84
45813;BME280;31519;45.408;10.962;2023-05-08T00:51:20;100791.44;;;21.48;87.57
45813;BME280;31519;45.408;10.962;2023-05-08T00:53:50;100784.19;;;21.59;88.70
45813;BME280;31519;45.408;10.962;2023-05-08T00:56:19;100785.38;;;21.62;89.34
45813;BME280;31519;45.408;10.962;2023-05-08T00:58:48;100784.66;;;21.68;89.25
45813;BME280;31519;45.408;10.962;2023-05-08T01:01:17;100797.16;;;21.77;89.66
45813;BME280;31519;45.408;10.962;2023-05-08T01:03:46;100790.78;;;21.58;90.51
45813;BME280;31519;45.408;10.962;2023-05-08T01:06:15;100798.13;;;21.58;89.28
45813;BME280;31519;45.408;10.962;2023-05-08T01:08:44;100783.22;;;21.45;92.17
45813;BME280;31519;45.408;10.962;2023-05-08T01:11:28;100781.78;;;21.54;92.76
45813;BME280;31519;45.408;10.962;2023-05-08T01:14:19;100780.47;;;21.75;90.73
45813;BME280;31519;45.408;10.962;2023-05-08T01:26:00;100765.34;;;21.74;90.31
45813;BME280;31519;45.408;10.962;2023-05-08T01:37:15;100774.53;;;21.62;91.88
45813;BME280;31519;45.408;10.962;2023-05-08T01:45:01;100775.03;;;21.71;90.51
45813;BME280;31519;45.408;10.962;2023-05-08T01:47:32;100772.22;;;21.64;91.29
45813;BME280;31519;45.408;10.962;2023-05-08T01:50:20;100761.66;;;21.92;88.74
45813;BME280;31519;45.408;10.962;2023-05-08T01:53:00;100768.19;;;21.88;88.45
45813;BME280;31519;45.408;10.962;2023-05-08T01:55:34;100768.06;;;21.74;87.96
45813;BME280;31519;45.408;10.962;2023-05-08T01:58:06;100768.31;;;21.58;89.76
45813;BME280;31519;45.408;10.962;2023-05-08T02:00:37;100769.56;;;21.67;89.52
45813;BME280;31519;45.408;10.962;2023-05-08T02:03:09;100758.44;;;22.20;87.75
45813;BME280;31519;45.408;10.962;2023-05-08T02:05:39;100752.41;;;21.93;88.35
45813;BME280;31519;45.408;10.962;2023-05-08T02:08:10;100752.56;;;22.15;88.52
45813;BME280;31519;45.408;10.962;2023-05-08T02:10:39;100757.72;;;21.86;90.21
45813;BME280;31519;45.408;10.962;2023-05-08T02:13:10;100761.75;;;21.62;89.93
45813;BME280;31519;45.408;10.962;2023-05-08T02:15:41;100757.72;;;21.86;88.93
45813;BME280;31519;45.408;10.962;2023-05-08T02:18:10;100771.84;;;21.65;87.65
45813;BME280;31519;45.408;10.962;2023-05-08T02:20:40;100774.75;;;21.46;93.05
45813;BME280;31519;45.408;10.962;2023-05-08T02:23:09;100783.28;;;20.89;97.21
45813;BME280;31519;45.408;10.962;2023-05-08T02:25:38;100785.31;;;20.43;100.00
45813;BME280;31519;45.408;10.962;2023-05-08T02:28:08;100779.06;;;19.93;100.00
45813;BME280;31519;45.408;10.962;2023-05-08T02:30:39;100784.59;;;20.46;100.00
45813;BME280;31519;45.408;10.962;2023-05-08T02:33:09;100777.88;;;20.36;100.00
45813;BME280;31519;45.408;10.962;2023-05-08T02:35:40;100784.06;;;20.37;100.00
45813;BME280;31519;45.408;10.962;2023-05-08T02:38:11;100788.72;;;20.40;100.00
45813;BME280;31519;45.408;10.962;2023-05-08T02:40:44;100798.38;;;20.37;100.00
45813;BME280;31519;45.408;10.962;2023-05-08T02:43:13;100801.34;;;19.86;100.00
45813;BME280;31519;45.408;10.962;2023-05-08T02:45:48;100798.06;;;19.97;100.00
45813;BME280;31519;45.408;10.962;2023-05-08T02:48:24;100799.47;;;20.32;100.00
45813;BME280;31519;45.408;10.962;2023-05-08T02:51:05;100804.31;;;20.01;100.00
45813;BME280;31519;45.408;10.962;2023-05-08T02:53:45;100806.00;;;19.89;100.00
45813;BME280;31519;45.408;10.962;2023-05-08T02:59:13;100810.78;;;19.96;100.00
45813;BME280;31519;45.408;10.962;2023-05-08T03:01:49;100801.41;;;19.90;100.00
45813;BME280;31519;45.408;10.962;2023-05-08T03:04:33;100801.78;;;19.88;100.00
45813;BME280;31519;45.408;10.962;2023-05-08T03:07:02;100795.28;;;19.93;100.00
45813;BME280;31519;45.408;10.962;2023-05-08T03:09:38;100797.47;;;20.07;100.00
45813;BME280;31519;45.408;10.962;2023-05-08T03:12:22;100806.59;;;20.44;100.00
45813;BME280;31519;45.408;10.962;2023-05-08T03:17:23;100801.19;;;20.44;100.00
45813;BME280;31519;45.408;10.962;2023-05-08T03:19:55;100803.41;;;19.93;100.00
45813;BME280;31519;45.408;10.962;2023-05-08T03:22:28;100804.66;;;19.99;100.00
45813;BME280;31519;45.408;10.962;2023-05-08T03:24:59;100807.78;;;20.24;100.00
45813;BME280;31519;45.408;10.962;2023-05-08T03:27:29;100805.38;;;19.96;100.00
45813;BME280;31519;45.408;10.962;2023-05-08T03:30:01;100817.00;;;19.77;100.00
45813;BME280;31519;45.408;10.962;2023-05-08T03:32:36;100822.19;;;20.09;100.00
45813;BME280;31519;45.408;10.962;2023-05-08T03:35:06;100823.44;;;20.57;100.00
45813;BME280;31519;45.408;10.962;2023-05-08T03:37:36;100822.13;;;19.82;100.00
45813;BME280;31519;45.408;10.962;2023-05-08T03:40:06;100824.25;;;19.92;100.00
45813;BME280;31519;45.408;10.962;2023-05-08T03:42:35;100821.19;;;20.17;100.00
45813;BME280;31519;45.408;10.962;2023-05-08T03:45:06;100824.75;;;19.98;100.00
45813;BME280;31519;45.408;10.962;2023-05-08T03:47:37;100829.91;;;20.29;100.00
45813;BME280;31519;45.408;10.962;2023-05-08T03:50:07;100838.72;;;20.04;100.00
45813;BME280;31519;45.408;10.962;2023-05-08T03:52:37;100837.00;;;20.15;100.00
45813;BME280;31519;45.408;10.962;2023-05-08T03:55:06;100848.69;;;20.00;100.00
45813;BME280;31519;45.408;10.962;2023-05-08T03:57:46;100851.34;;;19.58;100.00
45813;BME280;31519;45.408;10.962;2023-05-08T04:00:34;100867.06;;;19.90;100.00
45813;BME280;31519;45.408;10.962;2023-05-08T04:03:55;100864.63;;;19.28;100.00
45813;BME280;31519;45.408;10.962;2023-05-08T04:09:04;100882.47;;;19.32;100.00
45813;BME280;31519;45.408;10.962;2023-05-08T04:11:41;100885.63;;;19.54;100.00
45813;BME280;31519;45.408;10.962;2023-05-08T04:14:15;100892.16;;;19.53;100.00
45813;BME280;31519;45.408;10.962;2023-05-08T04:16:51;100898.91;;;18.92;100.00
45813;BME280;31519;45.408;10.962;2023-05-08T04:19:26;100902.97;;;19.02;100.00
45813;BME280;31519;45.408;10.962;2023-05-08T04:21:58;100910.59;;;19.47;100.00
45813;BME280;31519;45.408;10.962;2023-05-08T04:24:29;100915.47;;;19.41;100.00
45813;BME280;31519;45.408;10.962;2023-05-08T04:27:00;100913.75;;;19.33;100.00
45813;BME280;31519;45.408;10.962;2023-05-08T04:29:32;100924.88;;;18.97;100.00
45813;BME280;31519;45.408;10.962;2023-05-08T04:32:04;100923.66;;;18.79;100.00
45813;BME280;31519;45.408;10.962;2023-05-08T04:34:34;100936.00;;;18.95;100.00
45813;BME280;31519;45.408;10.962;2023-05-08T04:37:05;100929.03;;;19.80;100.00
45813;BME280;31519;45.408;10.962;2023-05-08T04:39:34;100933.88;;;19.90;100.00
45813;BME280;31519;45.408;10.962;2023-05-08T04:42:02;100930.50;;;19.58;100.00
45813;BME280;31519;45.408;10.962;2023-05-08T04:44:34;100943.34;;;19.30;100.00
45813;BME280;31519;45.408;10.962;2023-05-08T04:47:02;100946.09;;;19.14;100.00
45813;BME280;31519;45.408;10.962;2023-05-08T04:49:30;100952.78;;;19.52;100.00
45813;BME280;31519;45.408;10.962;2023-05-08T04:51:59;100954.28;;;19.68;100.00
45813;BME280;31519;45.408;10.962;2023-05-08T04:54:28;100957.31;;;19.48;100.00
45813;BME280;31519;45.408;10.962;2023-05-08T04:56:57;100957.00;;;19.87;100.00
45813;BME280;31519;45.408;10.962;2023-05-08T04:59:25;100955.44;;;20.06;100.00
45813;BME280;31519;45.408;10.962;2023-05-08T05:01:57;100953.75;;;19.98;100.00
45813;BME280;31519;45.408;10.962;2023-05-08T05:04:29;100969.47;;;19.92;100.00
45813;BME280;31519;45.408;10.962;2023-05-08T05:07:00;100957.09;;;20.10;100.00
45813;BME280;31519;45.408;10.962;2023-05-08T05:09:28;100964.75;;;19.89;100.00
45813;BME280;31519;45.408;10.962;2023-05-08T05:11:57;100959.84;;;19.95;100.00
45813;BME280;31519;45.408;10.962;2023-05-08T05:14:25;100967.09;;;19.71;100.00
45813;BME280;31519;45.408;10.962;2023-05-08T05:16:53;100955.78;;;19.85;100.00
45813;BME280;31519;45.408;10.962;2023-05-08T05:19:21;100966.19;;;19.83;100.00
45813;BME280;31519;45.408;10.962;2023-05-08T05:21:50;100966.47;;;19.97;100.00
45813;BME280;31519;45.408;10.962;2023-05-08T05:24:18;100969.09;;;20.13;100.00
45813;BME280;31519;45.408;10.962;2023-05-08T05:26:46;100965.59;;;20.12;100.00
45813;BME280;31519;45.408;10.962;2023-05-08T05:29:15;100962.84;;;20.47;100.00
45813;BME280;31519;45.408;10.962;2023-05-08T05:31:44;100979.44;;;20.07;100.00
45813;BME280;31519;45.408;10.962;2023-05-08T05:34:12;100979.53;;;20.30;100.00
45813;BME280;31519;45.408;10.962;2023-05-08T05:36:41;100981.63;;;19.82;100.00
45813;BME280;31519;45.408;10.962;2023-05-08T05:39:09;100975.50;;;20.05;100.00
45813;BME280;31519;45.408;10.962;2023-05-08T05:41:38;100983.63;;;20.05;100.00
45813;BME280;31519;45.408;10.962;2023-05-08T05:44:09;100978.44;;;19.96;100.00
45813;BME280;31519;45.408;10.962;2023-05-08T05:46:38;100978.34;;;20.50;100.00
45813;BME280;31519;45.408;10.962;2023-05-08T05:49:10;100979.56;;;20.53;100.00
45813;BME280;31519;45.408;10.962;2023-05-08T05:51:40;100965.03;;;20.84;100.00
45813;BME280;31519;45.408;10.962;2023-05-08T05:54:08;100963.78;;;21.04;100.00
45813;BME280;31519;45.408;10.962;2023-05-08T05:56:36;100952.13;;;21.00;100.00
45813;BME280;31519;45.408;10.962;2023-05-08T05:59:04;100955.78;;;21.11;100.00
45813;BME280;31519;45.408;10.962;2023-05-08T06:01:34;100955.22;;;21.21;100.00
45813;BME280;31519;45.408;10.962;2023-05-08T06:04:02;100959.16;;;21.27;100.00
45813;BME280;31519;45.408;10.962;2023-05-08T06:06:31;100961.50;;;21.29;100.00
45813;BME280;31519;45.408;10.962;2023-05-08T06:08:59;100959.97;;;21.31;100.00
45813;BME280;31519;45.408;10.962;2023-05-08T06:11:28;100961.75;;;20.52;100.00
45813;BME280;31519;45.408;10.962;2023-05-08T06:13:56;100963.38;;;20.56;100.00
45813;BME280;31519;45.408;10.962;2023-05-08T06:16:24;100961.03;;;20.77;100.00
45813;BME280;31519;45.408;10.962;2023-05-08T06:18:52;100964.47;;;20.52;100.00
45813;BME280;31519;45.408;10.962;2023-05-08T06:21:21;100961.56;;;20.41;100.00
45813;BME280;31519;45.408;10.962;2023-05-08T06:23:49;100966.25;;;20.44;100.00
45813;BME280;31519;45.408;10.962;2023-05-08T06:26:17;100964.13;;;20.99;100.00
45813;BME280;31519;45.408;10.962;2023-05-08T06:28:47;100960.69;;;21.02;100.00
45813;BME280;31519;45.408;10.962;2023-05-08T06:31:16;100960.47;;;20.26;100.00
45813;BME280;31519;45.408;10.962;2023-05-08T06:33:44;100967.44;;;20.89;100.00
45813;BME280;31519;45.408;10.962;2023-05-08T06:36:12;100964.88;;;20.99;100.00
45813;BME280;31519;45.408;10.962;2023-05-08T06:38:40;100968.72;;;21.44;100.00
45813;BME280;31519;45.408;10.962;2023-05-08T06:41:08;100969.88;;;21.46;100.00
45813;BME280;31519;45.408;10.962;2023-05-08T06:43:36;100979.72;;;21.32;100.00
45813;BME280;31519;45.408;10.962;2023-05-08T06:46:05;100976.88;;;21.47;100.00
45813;BME280;31519;45.408;10.962;2023-05-08T06:48:33;100978.56;;;21.29;100.00
45813;BME280;31519;45.408;10.962;2023-05-08T06:51:01;100975.22;;;21.39;100.00
45813;BME280;31519;45.408;10.962;2023-05-08T06:53:30;100980.03;;;21.04;100.00
45813;BME280;31519;45.408;10.962;2023-05-08T06:55:58;100986.44;;;20.92;100.00
45813;BME280;31519;45.408;10.962;2023-05-08T06:58:26;100980.28;;;20.30;100.00
45813;BME280;31519;45.408;10.962;2023-05-08T07:00:54;100983.59;;;20.62;100.00
45813;BME280;31519;45.408;10.962;2023-05-08T07:03:22;100988.00;;;20.70;100.00
45813;BME280;31519;45.408;10.962;2023-05-08T07:05:51;100986.88;;;20.71;100.00
45813;BME280;31519;45.408;10.962;2023-05-08T07:08:19;100975.34;;;20.55;100.00
45813;BME280;31519;45.408;10.962;2023-05-08T07:10:47;100984.56;;;20.73;100.00
45813;BME280;31519;45.408;10.962;2023-05-08T07:13:16;100978.50;;;21.03;100.00
45813;BME280;31519;45.408;10.962;2023-05-08T07:15:48;100996.44;;;20.88;100.00
45813;BME280;31519;45.408;10.962;2023-05-08T07:18:16;100997.53;;;20.42;100.00
45813;BME280;31519;45.408;10.962;2023-05-08T07:20:45;100990.66;;;20.28;100.00
45813;BME280;31519;45.408;10.962;2023-05-08T07:23:13;100996.16;;;20.32;100.00
45813;BME280;31519;45.408;10.962;2023-05-08T07:25:41;100996.72;;;20.22;100.00
45813;BME280;31519;45.408;10.962;2023-05-08T07:28:10;100994.66;;;20.54;100.00
45813;BME280;31519;45.408;10.962;2023-05-08T07:30:38;101004.13;;;20.44;100.00
45813;BME280;31519;45.408;10.962;2023-05-08T07:33:06;101001.41;;;20.44;100.00
45813;BME280;31519;45.408;10.962;2023-05-08T07:35:40;101001.63;;;20.55;100.00
45813;BME280;31519;45.408;10.962;2023-05-08T07:38:08;101009.75;;;20.55;100.00
45813;BME280;31519;45.408;10.962;2023-05-08T07:40:36;101000.63;;;20.63;100.00
45813;BME280;31519;45.408;10.962;2023-05-08T07:43:04;101003.25;;;20.59;100.00
45813;BME280;31519;45.408;10.962;2023-05-08T07:45:34;101014.16;;;20.86;100.00
45813;BME280;31519;45.408;10.962;2023-05-08T07:48:02;101013.69;;;20.57;100.00
45813;BME280;31519;45.408;10.962;2023-05-08T07:50:31;101017.00;;;20.70;100.00
45813;BME280;31519;45.408;10.962;2023-05-08T07:52:59;101015.75;;;20.87;100.00
45813;BME280;31519;45.408;10.962;2023-05-08T07:55:27;101022.69;;;21.07;100.00
45813;BME280;31519;45.408;10.962;2023-05-08T07:57:55;101015.94;;;21.20;100.00
45813;BME280;31519;45.408;10.962;2023-05-08T08:00:24;101012.97;;;21.06;100.00
45813;BME280;31519;45.408;10.962;2023-05-08T08:02:54;101019.81;;;20.77;100.00
45813;BME280;31519;45.408;10.962;2023-05-08T08:05:23;101012.81;;;20.53;100.00
45813;BME280;31519;45.408;10.962;2023-05-08T08:07:51;101011.63;;;20.51;100.00
45813;BME280;31519;45.408;10.962;2023-05-08T08:10:19;101018.44;;;20.64;100.00
45813;BME280;31519;45.408;10.962;2023-05-08T08:12:47;101018.66;;;20.55;100.00
45813;BME280;31519;45.408;10.962;2023-05-08T08:15:15;101018.44;;;20.87;100.00
45813;BME280;31519;45.408;10.962;2023-05-08T08:17:44;101014.59;;;20.65;100.00
45813;BME280;31519;45.408;10.962;2023-05-08T08:20:12;101020.75;;;21.07;100.00
45813;BME280;31519;45.408;10.962;2023-05-08T08:22:40;101021.47;;;21.04;100.00
45813;BME280;31519;45.408;10.962;2023-05-08T08:25:10;101026.66;;;21.13;100.00
45813;BME280;31519;45.408;10.962;2023-05-08T08:27:38;101030.50;;;20.89;100.00
45813;BME280;31519;45.408;10.962;2023-05-08T08:30:07;101028.63;;;20.93;100.00
45813;BME280;31519;45.408;10.962;2023-05-08T08:32:45;101031.34;;;20.93;100.00
45813;BME280;31519;45.408;10.962;2023-05-08T08:35:13;101026.84;;;21.50;100.00
45813;BME280;31519;45.408;10.962;2023-05-08T08:37:42;101025.53;;;21.63;100.00
45813;BME280;31519;45.408;10.962;2023-05-08T08:40:11;101017.00;;;21.64;100.00
45813;BME280;31519;45.408;10.962;2023-05-08T08:42:39;101031.41;;;21.95;100.00
45813;BME280;31519;45.408;10.962;2023-05-08T08:45:08;101025.06;;;21.87;100.00
45813;BME280;31519;45.408;10.962;2023-05-08T08:47:38;101027.81;;;22.17;99.47
45813;BME280;31519;45.408;10.962;2023-05-08T08:50:12;101024.69;;;21.85;99.51
45813;BME280;31519;45.408;10.962;2023-05-08T08:53:00;101029.41;;;21.92;97.15
45813;BME280;31519;45.408;10.962;2023-05-08T08:55:32;101032.41;;;21.87;97.38
45813;BME280;31519;45.408;10.962;2023-05-08T09:00:39;101041.31;;;22.14;96.86
45813;BME280;31519;45.408;10.962;2023-05-08T09:03:08;101039.47;;;22.18;95.10
45813;BME280;31519;45.408;10.962;2023-05-08T09:05:37;101045.75;;;22.25;96.16
45813;BME280;31519;45.408;10.962;2023-05-08T09:08:06;101041.50;;;22.28;93.97
45813;BME280;31519;45.408;10.962;2023-05-08T09:10:35;101045.56;;;22.41;93.68
45813;BME280;31519;45.408;10.962;2023-05-08T09:13:03;101045.34;;;22.57;92.31
45813;BME280;31519;45.408;10.962;2023-05-08T09:15:32;101039.09;;;22.52;92.80
45813;BME280;31519;45.408;10.962;2023-05-08T09:18:01;101038.97;;;22.75;89.43
45813;BME280;31519;45.408;10.962;2023-05-08T09:20:30;101042.31;;;22.65;90.05
45813;BME280;31519;45.408;10.962;2023-05-08T09:23:00;101053.69;;;22.74;87.94
45813;BME280;31519;45.408;10.962;2023-05-08T09:25:45;101052.81;;;22.67;87.33
45813;BME280;31519;45.408;10.962;2023-05-08T09:28:21;101052.13;;;22.73;87.37
45813;BME280;31519;45.408;10.962;2023-05-08T09:30:52;101052.53;;;22.72;87.64
45813;BME280;31519;45.408;10.962;2023-05-08T09:33:22;101042.44;;;22.39;88.59
45813;BME280;31519;45.408;10.962;2023-05-08T09:35:51;101052.19;;;22.43;85.27
45813;BME280;31519;45.408;10.962;2023-05-08T09:38:36;101052.06;;;21.77;89.32
45813;BME280;31519;45.408;10.962;2023-05-08T09:41:13;101060.47;;;22.24;89.86
45813;BME280;31519;45.408;10.962;2023-05-08T09:43:43;101057.81;;;21.98;88.81
45813;BME280;31519;45.408;10.962;2023-05-08T09:46:19;101054.44;;;22.38;88.66
45813;BME280;31519;45.408;10.962;2023-05-08T09:48:50;101058.38;;;22.44;88.05
45813;BME280;31519;45.408;10.962;2023-05-08T09:51:19;101066.78;;;22.69;86.69
45813;BME280;31519;45.408;10.962;2023-05-08T09:53:55;101068.66;;;22.94;85.59
45813;BME280;31519;45.408;10.962;2023-05-08T09:56:35;101067.06;;;22.90;83.82
45813;BME280;31519;45.408;10.962;2023-05-08T10:01:49;101067.72;;;23.20;83.36
45813;BME280;31519;45.408;10.962;2023-05-08T10:04:30;101061.97;;;22.85;83.75
45813;BME280;31519;45.408;10.962;2023-05-08T10:06:58;101065.81;;;22.84;80.42
45813;BME280;31519;45.408;10.962;2023-05-08T10:09:27;101073.81;;;22.70;83.31
45813;BME280;31519;45.408;10.962;2023-05-08T10:12:14;101060.25;;;22.70;77.48
45813;BME280;31519;45.408;10.962;2023-05-08T10:14:42;101059.84;;;23.08;77.52
45813;BME280;31519;45.408;10.962;2023-05-08T10:17:19;101064.66;;;23.25;76.38
45813;BME280;31519;45.408;10.962;2023-05-08T10:19:54;101054.94;;;23.75;71.98
45813;BME280;31519;45.408;10.962;2023-05-08T10:22:26;101058.75;;;23.16;73.60
45813;BME280;31519;45.408;10.962;2023-05-08T10:24:56;101063.03;;;23.65;72.90
45813;BME280;31519;45.408;10.962;2023-05-08T10:27:46;101055.00;;;23.82;75.00
45813;BME280;31519;45.408;10.962;2023-05-08T10:30:16;101051.97;;;23.95;72.98
45813;BME280;31519;45.408;10.962;2023-05-08T10:32:48;101052.16;;;24.34;73.49
45813;BME280;31519;45.408;10.962;2023-05-08T10:35:20;101050.94;;;24.20;70.16
45813;BME280;31519;45.408;10.962;2023-05-08T10:37:49;101040.81;;;24.21;71.51
45813;BME280;31519;45.408;10.962;2023-05-08T10:40:19;101038.38;;;24.02;70.64
45813;BME280;31519;45.408;10.962;2023-05-08T10:42:49;101037.81;;;24.51;71.73
45813;BME280;31519;45.408;10.962;2023-05-08T10:45:18;101033.19;;;24.65;69.99
45813;BME280;31519;45.408;10.962;2023-05-08T10:51:22;101019.63;;;24.87;68.20
45813;BME280;31519;45.408;10.962;2023-05-08T10:54:05;101020.81;;;25.00;67.99
45813;BME280;31519;45.408;10.962;2023-05-08T10:56:37;101018.03;;;24.82;69.91
45813;BME280;31519;45.408;10.962;2023-05-08T10:59:16;101025.00;;;24.62;69.68
45813;BME280;31519;45.408;10.962;2023-05-08T11:01:48;101020.75;;;24.68;68.17
45813;BME280;31519;45.408;10.962;2023-05-08T11:04:21;101016.06;;;24.65;66.65
45813;BME280;31519;45.408;10.962;2023-05-08T11:06:50;101018.53;;;23.94;65.49
45813;BME280;31519;45.408;10.962;2023-05-08T11:09:49;101014.47;;;24.57;66.43
45813;BME280;31519;45.408;10.962;2023-05-08T11:12:27;101032.63;;;24.14;64.38
45813;BME280;31519;45.408;10.962;2023-05-08T11:15:03;101019.53;;;24.55;61.99
45813;BME280;31519;45.408;10.962;2023-05-08T11:17:33;101025.75;;;24.41;61.95
45813;BME280;31519;45.408;10.962;2023-05-08T11:20:03;101021.13;;;23.73;64.08
45813;BME280;31519;45.408;10.962;2023-05-08T11:22:33;101025.97;;;24.11;62.75
45813;BME280;31519;45.408;10.962;2023-05-08T11:25:09;101027.38;;;23.80;64.00
45813;BME280;31519;45.408;10.962;2023-05-08T11:33:18;101032.75;;;24.42;60.61
45813;BME280;31519;45.408;10.962;2023-05-08T11:38:35;101039.13;;;23.95;56.40
45813;BME280;31519;45.408;10.962;2023-05-08T11:41:07;101036.97;;;24.29;57.57
45813;BME280;31519;45.408;10.962;2023-05-08T11:46:18;101041.22;;;23.51;58.85
45813;BME280;31519;45.408;10.962;2023-05-08T11:48:48;101035.97;;;23.86;58.92
45813;BME280;31519;45.408;10.962;2023-05-08T11:51:17;101031.13;;;24.27;56.20
45813;BME280;31519;45.408;10.962;2023-05-08T11:53:48;101028.50;;;24.66;54.31
45813;BME280;31519;45.408;10.962;2023-05-08T11:56:16;101021.25;;;23.94;51.97
45813;BME280;31519;45.408;10.962;2023-05-08T11:58:44;101027.63;;;24.30;50.87
45813;BME280;31519;45.408;10.962;2023-05-08T12:01:18;101020.81;;;25.25;48.94
45813;BME280;31519;45.408;10.962;2023-05-08T12:03:47;101027.00;;;25.46;50.07
45813;BME280;31519;45.408;10.962;2023-05-08T12:06:17;101023.91;;;25.55;50.61
45813;BME280;31519;45.408;10.962;2023-05-08T12:08:45;101022.34;;;25.22;53.06
45813;BME280;31519;45.408;10.962;2023-05-08T12:11:21;101025.41;;;25.77;52.96
45813;BME280;31519;45.408;10.962;2023-05-08T12:13:50;101020.78;;;25.60;45.70
45813;BME280;31519;45.408;10.962;2023-05-08T12:16:21;101022.75;;;25.24;46.59
45813;BME280;31519;45.408;10.962;2023-05-08T12:18:51;101023.91;;;25.48;47.42
45813;BME280;31519;45.408;10.962;2023-05-08T12:21:20;101016.47;;;24.78;52.19
45813;BME280;31519;45.408;10.962;2023-05-08T12:23:48;101019.25;;;24.88;53.42
45813;BME280;31519;45.408;10.962;2023-05-08T12:26:17;101008.63;;;24.44;56.07
45813;BME280;31519;45.408;10.962;2023-05-08T12:28:45;101013.03;;;25.02;55.82
45813;BME280;31519;45.408;10.962;2023-05-08T12:31:14;101016.50;;;25.27;53.83
45813;BME280;31519;45.408;10.962;2023-05-08T12:33:42;101016.00;;;24.40;51.37
45813;BME280;31519;45.408;10.962;2023-05-08T12:36:11;101018.56;;;24.01;52.48
45813;BME280;31519;45.408;10.962;2023-05-08T12:38:40;101014.81;;;24.27;52.87
45813;BME280;31519;45.408;10.962;2023-05-08T12:41:08;101020.72;;;24.75;53.34
45813;BME280;31519;45.408;10.962;2023-05-08T12:43:37;101023.53;;;25.28;52.09
45813;BME280;31519;45.408;10.962;2023-05-08T12:46:10;101023.91;;;25.51;50.81
45813;BME280;31519;45.408;10.962;2023-05-08T12:48:39;101019.19;;;25.48;49.80
45813;BME280;31519;45.408;10.962;2023-05-08T12:51:09;101021.94;;;25.66;47.98
45813;BME280;31519;45.408;10.962;2023-05-08T12:53:38;101015.66;;;25.83;47.82
45813;BME280;31519;45.408;10.962;2023-05-08T12:56:06;101018.75;;;25.89;47.45
45813;BME280;31519;45.408;10.962;2023-05-08T12:58:34;101011.81;;;25.59;47.25
45813;BME280;31519;45.408;10.962;2023-05-08T13:01:09;101020.00;;;25.63;47.27
45813;BME280;31519;45.408;10.962;2023-05-08T13:03:40;101018.31;;;26.04;47.28
45813;BME280;31519;45.408;10.962;2023-05-08T13:06:26;101019.56;;;25.82;48.14
45813;BME280;31519;45.408;10.962;2023-05-08T13:08:54;101016.44;;;25.77;48.72
45813;BME280;31519;45.408;10.962;2023-05-08T13:11:30;101015.69;;;25.80;48.88
45813;BME280;31519;45.408;10.962;2023-05-08T13:13:59;101010.56;;;25.85;48.06
45813;BME280;31519;45.408;10.962;2023-05-08T13:16:28;101007.50;;;25.73;48.24
45813;BME280;31519;45.408;10.962;2023-05-08T13:18:56;101011.06;;;25.13;48.08
45813;BME280;31519;45.408;10.962;2023-05-08T13:21:25;101007.53;;;25.48;48.55
45813;BME280;31519;45.408;10.962;2023-05-08T13:23:55;101000.53;;;25.43;47.92
45813;BME280;31519;45.408;10.962;2023-05-08T13:26:23;100999.75;;;25.22;48.20
45813;BME280;31519;45.408;10.962;2023-05-08T13:28:52;100995.47;;;25.03;49.19
45813;BME280;31519;45.408;10.962;2023-05-08T13:31:23;100986.53;;;25.20;50.35
45813;BME280;31519;45.408;10.962;2023-05-08T13:33:51;100985.28;;;25.71;49.75
45813;BME280;31519;45.408;10.962;2023-05-08T13:36:20;100977.84;;;25.78;49.05
45813;BME280;31519;45.408;10.962;2023-05-08T13:38:49;100974.78;;;25.62;49.53
45813;BME280;31519;45.408;10.962;2023-05-08T13:41:18;100976.59;;;26.00;49.93
45813;BME280;31519;45.408;10.962;2023-05-08T13:43:46;100982.00;;;26.11;48.51
45813;BME280;31519;45.408;10.962;2023-05-08T13:46:15;100984.69;;;26.18;48.12